createdAt,value
2017-10-11T00:00:22.289Z,7.90
2017-10-11T00:02:50.535Z,8.90
2017-10-11T00:05:18.019Z,9.70
2017-10-11T00:07:46.275Z,8.50
2017-10-11T00:10:13.767Z,10.50
2017-10-11T00:12:42.019Z,9.20
2017-10-11T00:15:11.022Z,9.57
2017-10-11T00:17:39.272Z,9.20
2017-10-11T00:20:06.748Z,8.80
2017-10-11T00:22:34.248Z,9.43
2017-10-11T00:25:01.770Z,9.93
2017-10-11T00:27:30.844Z,9.75
2017-10-11T00:29:58.431Z,9.00
2017-10-11T00:32:26.684Z,9.13
2017-10-11T00:34:54.180Z,10.60
2017-10-11T00:37:22.443Z,10.37
2017-10-11T00:39:50.719Z,10.03
2017-10-11T00:42:18.967Z,9.13
2017-10-11T00:44:46.468Z,8.67
2017-10-11T00:47:14.728Z,8.33
2017-10-11T00:49:42.979Z,9.30
2017-10-11T00:52:10.568Z,9.00
2017-10-11T00:54:38.813Z,8.90
2017-10-11T00:57:06.299Z,8.73
2017-10-11T00:59:34.581Z,9.33
2017-10-11T01:02:02.831Z,9.57
2017-10-11T01:04:31.234Z,8.87
2017-10-11T01:06:59.508Z,8.93
2017-10-11T01:09:27.783Z,9.30
2017-10-11T01:11:55.259Z,9.90
2017-10-11T01:14:23.603Z,9.47
2017-10-11T01:16:51.081Z,9.80
2017-10-11T01:19:19.362Z,9.63
2017-10-11T01:21:47.736Z,9.53
2017-10-11T01:24:16.012Z,10.20
2017-10-11T01:26:44.291Z,9.30
2017-10-11T01:29:12.559Z,9.70
2017-10-11T01:31:40.034Z,9.27
2017-10-11T01:34:08.288Z,8.80
2017-10-11T01:36:35.787Z,9.20
2017-10-11T01:39:03.265Z,9.63
2017-10-11T01:41:30.772Z,8.57
2017-10-11T01:43:58.271Z,9.20
2017-10-11T01:46:25.799Z,9.20
2017-10-11T01:48:54.080Z,8.20
2017-10-11T01:51:22.456Z,9.87
2017-10-11T01:53:50.718Z,8.53
2017-10-11T01:56:18.192Z,9.33
2017-10-11T01:58:46.464Z,9.13
2017-10-11T02:01:14.731Z,9.27
2017-10-11T02:03:43.020Z,10.23
2017-10-11T02:06:11.287Z,9.27
2017-10-11T02:08:39.533Z,8.87
2017-10-11T02:11:07.059Z,9.00
2017-10-11T02:13:34.578Z,8.53
2017-10-11T02:16:02.055Z,8.70
2017-10-11T02:18:29.621Z,9.40
2017-10-11T02:20:57.119Z,9.37
2017-10-11T02:23:24.594Z,9.03
2017-10-11T02:25:52.071Z,8.60
2017-10-11T02:28:19.564Z,7.97
2017-10-11T02:30:47.054Z,9.37
2017-10-11T02:33:14.551Z,8.73
2017-10-11T02:35:42.822Z,9.40
2017-10-11T02:38:11.101Z,8.80
2017-10-11T02:40:39.344Z,8.27
2017-10-11T02:43:06.872Z,9.07
2017-10-11T02:45:35.288Z,8.70
2017-10-11T02:48:02.773Z,8.67
2017-10-11T02:50:31.151Z,8.30
2017-10-11T02:52:59.404Z,8.23
2017-10-11T02:55:26.880Z,9.17
2017-10-11T02:57:54.382Z,8.43
2017-10-11T03:00:21.907Z,9.50
2017-10-11T03:02:50.152Z,7.77
2017-10-11T03:05:17.643Z,8.20
2017-10-11T03:07:46.183Z,9.07
2017-10-11T03:10:13.683Z,8.13
2017-10-11T03:12:41.952Z,8.97
2017-10-11T03:15:09.432Z,9.10
2017-10-11T03:17:36.923Z,9.20
2017-10-11T03:20:04.441Z,8.73
2017-10-11T03:22:32.706Z,9.80
2017-10-11T03:25:00.947Z,9.47
2017-10-11T03:27:28.446Z,9.00
2017-10-11T03:29:56.718Z,8.93
2017-10-11T03:32:24.966Z,10.80
2017-10-11T03:34:52.556Z,11.97
2017-10-11T03:37:20.836Z,11.20
2017-10-11T03:39:49.120Z,10.17
2017-10-11T03:42:17.490Z,9.73
2017-10-11T03:44:45.743Z,10.03
2017-10-11T03:47:13.231Z,8.77
2017-10-11T03:49:41.502Z,14.30
2017-10-11T03:52:09.777Z,12.70
2017-10-11T03:54:37.371Z,10.30
2017-10-11T03:57:04.875Z,10.83
2017-10-11T03:59:32.363Z,13.27
2017-10-11T04:02:00.603Z,11.20
2017-10-11T04:04:28.195Z,11.40
2017-10-11T04:06:56.435Z,14.83
2017-10-11T04:09:24.027Z,14.60
2017-10-11T04:11:52.291Z,13.23
2017-10-11T04:14:19.800Z,12.00
2017-10-11T04:16:47.327Z,12.10
2017-10-11T04:19:15.591Z,14.77
2017-10-11T04:21:43.074Z,16.60
2017-10-11T04:24:10.679Z,12.93
2017-10-11T04:26:38.351Z,13.87
2017-10-11T04:29:05.835Z,12.30
2017-10-11T04:31:33.314Z,12.07
2017-10-11T04:34:00.824Z,12.40
2017-10-11T04:36:28.307Z,12.10
2017-10-11T04:38:55.790Z,14.20
2017-10-11T04:41:23.286Z,11.63
2017-10-11T04:43:50.773Z,11.90
2017-10-11T04:46:18.253Z,11.63
2017-10-11T04:48:46.524Z,11.50
2017-10-11T04:51:14.795Z,11.10
2017-10-11T04:53:42.269Z,11.40
2017-10-11T04:56:10.549Z,12.13
2017-10-11T04:58:38.064Z,12.23
2017-10-11T05:01:05.538Z,11.60
2017-10-11T05:03:33.042Z,12.40
2017-10-11T05:06:00.519Z,12.57
2017-10-11T05:08:27.999Z,12.47
2017-10-11T05:10:56.607Z,13.67
2017-10-11T05:13:24.851Z,13.27
2017-10-11T05:15:52.327Z,13.60
2017-10-11T05:18:20.806Z,14.37
2017-10-11T05:20:49.079Z,14.00
2017-10-11T05:23:16.571Z,13.90
2017-10-11T05:25:44.847Z,12.20
2017-10-11T05:28:13.107Z,13.17
2017-10-11T05:30:41.475Z,11.50
2017-10-11T05:33:08.978Z,11.20
2017-10-11T05:35:36.473Z,11.63
2017-10-11T05:38:03.954Z,11.00
2017-10-11T05:40:31.470Z,12.07
2017-10-11T05:42:58.950Z,11.67
2017-10-11T05:45:26.441Z,12.70
2017-10-11T05:47:54.714Z,11.93
2017-10-11T05:50:22.202Z,11.83
2017-10-11T05:52:50.090Z,11.27
2017-10-11T05:55:17.586Z,12.40
2017-10-11T05:57:45.072Z,12.93
2017-10-11T06:00:13.384Z,12.80
2017-10-11T06:02:42.582Z,12.70
2017-10-11T06:05:10.094Z,11.77
2017-10-11T06:07:38.355Z,13.00
2017-10-11T06:10:05.867Z,11.23
2017-10-11T06:12:33.358Z,10.70
2017-10-11T06:15:00.863Z,10.20
2017-10-11T06:17:28.367Z,10.80
2017-10-11T06:19:55.861Z,11.13
2017-10-11T06:22:24.139Z,10.43
2017-10-11T06:24:52.402Z,10.07
2017-10-11T06:27:19.976Z,9.57
2017-10-11T06:29:48.231Z,10.90
2017-10-11T06:32:15.729Z,9.67
2017-10-11T06:34:44.059Z,9.90
2017-10-11T06:37:11.545Z,9.73
2017-10-11T06:39:39.816Z,9.83
2017-10-11T06:42:07.295Z,9.47
2017-10-11T06:44:35.558Z,9.67
2017-10-11T06:47:03.830Z,9.17
2017-10-11T06:49:32.081Z,9.37
2017-10-11T06:51:59.560Z,24.77
2017-10-11T06:54:27.850Z,10.93
2017-10-11T06:56:56.109Z,10.97
2017-10-11T06:59:23.596Z,12.53
2017-10-11T07:01:51.096Z,9.73
2017-10-11T07:04:18.580Z,10.17
2017-10-11T07:06:46.055Z,8.83
2017-10-11T07:09:15.350Z,11.53
2017-10-11T07:11:43.644Z,10.47
2017-10-11T07:14:11.891Z,9.17
2017-10-11T07:16:40.168Z,13.90
2017-10-11T07:19:07.703Z,13.73
2017-10-11T07:21:35.707Z,10.30
2017-10-11T07:24:03.209Z,9.90
2017-10-11T07:26:30.687Z,7.00
2017-10-11T07:28:58.194Z,7.13
2017-10-11T07:31:26.505Z,6.43
2017-10-11T07:33:53.982Z,7.20
2017-10-11T07:36:21.455Z,7.33
2017-10-11T07:38:49.036Z,8.10
2017-10-11T07:41:16.515Z,6.67
2017-10-11T07:43:44.770Z,9.40
2017-10-11T07:46:13.075Z,8.63
2017-10-11T07:48:40.553Z,8.32
2017-10-11T07:51:08.936Z,8.00
2017-10-11T07:53:36.447Z,7.93
2017-10-11T07:56:04.699Z,8.77
2017-10-11T07:58:32.179Z,7.33
2017-10-11T08:00:59.672Z,8.10
2017-10-11T08:03:27.194Z,7.87
2017-10-11T08:05:55.480Z,7.20
2017-10-11T08:08:23.744Z,6.07
2017-10-11T08:10:52.746Z,7.10
2017-10-11T08:13:21.271Z,8.10
2017-10-11T08:15:48.791Z,8.63
2017-10-11T08:18:17.951Z,7.00
2017-10-11T08:20:45.424Z,6.50
2017-10-11T08:23:12.923Z,5.77
2017-10-11T08:25:40.395Z,5.43
2017-10-11T08:28:07.932Z,5.50
2017-10-11T08:30:36.303Z,5.63
2017-10-11T08:33:04.547Z,4.47
2017-10-11T08:35:32.023Z,5.70
2017-10-11T08:37:59.593Z,5.60
2017-10-11T08:40:27.867Z,4.77
2017-10-11T08:42:56.148Z,5.00
2017-10-11T08:45:24.428Z,4.57
2017-10-11T08:47:52.680Z,3.90
2017-10-11T08:50:20.146Z,4.20
2017-10-11T08:52:48.558Z,3.70
2017-10-11T08:55:16.106Z,5.10
2017-10-11T08:57:44.352Z,4.90
2017-10-11T09:00:11.948Z,4.37
2017-10-11T09:02:40.194Z,4.57
2017-10-11T09:05:07.672Z,4.57
2017-10-11T09:07:36.044Z,5.00
2017-10-11T09:10:04.328Z,4.67
2017-10-11T09:12:32.624Z,4.53
2017-10-11T09:15:00.133Z,4.60
2017-10-11T09:17:27.611Z,5.00
2017-10-11T09:19:55.856Z,3.90
2017-10-11T09:22:23.451Z,4.40
2017-10-11T09:24:51.703Z,3.97
2017-10-11T09:27:19.762Z,4.30
2017-10-11T09:29:47.251Z,4.17
2017-10-11T09:32:14.799Z,4.30
2017-10-11T09:34:42.278Z,4.40
2017-10-11T09:37:10.542Z,4.30
2017-10-11T09:39:38.015Z,4.43
2017-10-11T09:42:06.258Z,5.00
2017-10-11T09:44:33.843Z,4.83
2017-10-11T09:47:02.118Z,4.73
2017-10-11T09:49:29.616Z,5.07
2017-10-11T09:51:57.116Z,4.00
2017-10-11T09:54:24.597Z,4.33
2017-10-11T09:56:52.846Z,5.03
2017-10-11T09:59:20.430Z,4.33
2017-10-11T10:01:48.677Z,4.47
2017-10-11T10:04:16.160Z,4.40
2017-10-11T10:06:43.660Z,4.20
2017-10-11T10:09:11.144Z,4.00
2017-10-11T10:11:38.655Z,4.60
2017-10-11T10:14:06.911Z,4.30
2017-10-11T10:16:34.397Z,4.30
2017-10-11T10:19:01.934Z,4.77
2017-10-11T10:21:29.431Z,4.77
2017-10-11T10:23:56.911Z,4.20
2017-10-11T10:26:24.387Z,4.73
2017-10-11T10:28:51.875Z,4.13
2017-10-11T10:31:21.056Z,4.67
2017-10-11T10:33:48.519Z,4.17
2017-10-11T10:36:16.121Z,3.53
2017-10-11T10:38:43.595Z,4.20
2017-10-11T10:41:11.101Z,4.03
2017-10-11T10:43:39.373Z,3.70
2017-10-11T10:46:08.351Z,3.87
2017-10-11T10:48:35.822Z,3.80
2017-10-11T10:51:03.320Z,3.97
2017-10-11T10:53:30.807Z,4.40
2017-10-11T10:55:58.278Z,4.07
2017-10-11T10:58:25.776Z,3.90
2017-10-11T11:00:54.022Z,3.40
2017-10-11T11:03:21.922Z,3.80
2017-10-11T11:05:50.182Z,3.70
2017-10-11T11:08:18.422Z,4.20
2017-10-11T11:10:45.924Z,3.20
2017-10-11T11:13:14.189Z,3.90
2017-10-11T11:15:41.675Z,3.70
2017-10-11T11:18:09.157Z,4.00
2017-10-11T11:20:36.655Z,2.83
2017-10-11T11:23:04.905Z,4.30
2017-10-11T11:25:32.384Z,3.60
2017-10-11T11:27:59.878Z,3.30
2017-10-11T11:30:27.424Z,3.47
2017-10-11T11:32:55.663Z,2.80
2017-10-11T11:35:23.153Z,3.00
2017-10-11T11:37:51.433Z,3.50
2017-10-11T11:40:19.671Z,3.23
2017-10-11T11:42:47.272Z,3.30
2017-10-11T11:45:15.521Z,3.60
2017-10-11T11:47:42.999Z,3.07
2017-10-11T11:50:10.494Z,3.03
2017-10-11T11:52:37.988Z,3.10
2017-10-11T11:55:05.475Z,3.00
2017-10-11T11:57:33.743Z,2.70
2017-10-11T12:00:01.317Z,2.90
2017-10-11T12:02:29.559Z,3.10
2017-10-11T12:04:57.053Z,3.10
2017-10-11T12:07:25.300Z,3.23
2017-10-11T12:09:52.774Z,2.67
2017-10-11T12:12:20.313Z,3.07
2017-10-11T12:14:47.794Z,3.13
2017-10-11T12:17:15.282Z,2.70
2017-10-11T12:19:42.825Z,2.23
2017-10-11T12:22:11.096Z,1.90
2017-10-11T12:24:39.341Z,3.00
2017-10-11T12:27:06.848Z,2.80
2017-10-11T12:29:34.328Z,3.00
2017-10-11T12:32:01.840Z,2.17
2017-10-11T12:34:29.344Z,2.63
2017-10-11T12:36:56.823Z,2.30
2017-10-11T12:39:25.489Z,2.43
2017-10-11T12:41:52.987Z,2.60
2017-10-11T12:44:22.203Z,2.10
2017-10-11T12:46:50.455Z,2.73
2017-10-11T12:49:17.957Z,2.33
2017-10-11T12:51:45.430Z,1.83
2017-10-11T12:54:12.905Z,2.30
2017-10-11T12:56:40.404Z,2.47
2017-10-11T12:59:07.888Z,2.10
2017-10-11T13:01:36.123Z,2.00
2017-10-11T13:04:04.395Z,2.10
2017-10-11T13:06:31.869Z,2.07
2017-10-11T13:08:59.444Z,2.13
2017-10-11T13:11:27.705Z,2.00
2017-10-11T13:13:55.185Z,1.73
2017-10-11T13:16:23.557Z,2.10
2017-10-11T13:18:51.835Z,2.47
2017-10-11T13:21:20.080Z,1.63
2017-10-11T13:23:47.556Z,2.40
2017-10-11T13:26:15.141Z,1.80
2017-10-11T13:28:43.378Z,2.30
2017-10-11T13:31:10.965Z,1.80
2017-10-11T13:33:39.228Z,2.80
2017-10-11T13:36:07.472Z,2.47
2017-10-11T13:38:34.972Z,3.30
2017-10-11T13:41:03.259Z,2.30
2017-10-11T13:43:31.504Z,2.60
2017-10-11T13:45:58.979Z,1.83
2017-10-11T13:48:27.400Z,2.20
2017-10-11T13:50:54.876Z,2.63
2017-10-11T13:53:22.357Z,2.27
2017-10-11T13:55:49.852Z,2.17
2017-10-11T13:58:18.095Z,1.93
2017-10-11T14:00:45.575Z,1.70
2017-10-11T14:03:13.834Z,2.20
2017-10-11T14:05:41.410Z,1.60
2017-10-11T14:08:09.687Z,1.70
2017-10-11T14:10:37.942Z,1.80
2017-10-11T14:13:05.418Z,1.30
2017-10-11T14:15:33.658Z,1.47
2017-10-11T14:18:01.504Z,2.10
2017-10-11T14:20:28.982Z,1.90
2017-10-11T14:22:56.466Z,1.80
2017-10-11T14:25:23.969Z,1.80
2017-10-11T14:27:51.482Z,1.87
2017-10-11T14:30:19.248Z,1.80
2017-10-11T14:32:46.759Z,1.67
2017-10-11T14:35:14.240Z,2.00
2017-10-11T14:37:41.716Z,2.20
2017-10-11T14:40:09.216Z,2.20
2017-10-11T14:42:36.746Z,1.43
2017-10-11T14:45:04.992Z,1.97
2017-10-11T14:47:32.496Z,2.37
2017-10-11T14:50:00.740Z,1.83
2017-10-11T14:52:29.965Z,2.07
2017-10-11T14:54:59.151Z,2.10
2017-10-11T14:57:26.759Z,1.80
2017-10-11T14:59:54.279Z,2.33
2017-10-11T15:02:22.554Z,2.60
2017-10-11T15:04:50.791Z,2.37
2017-10-11T15:07:18.287Z,2.10
2017-10-11T15:09:46.552Z,2.10
2017-10-11T15:12:15.535Z,2.60
2017-10-11T15:14:43.011Z,2.60
2017-10-11T15:17:10.518Z,3.20
2017-10-11T15:19:37.988Z,3.10
2017-10-11T15:22:05.460Z,3.63
2017-10-11T15:24:33.050Z,5.23
2017-10-11T15:27:01.302Z,3.47
2017-10-11T15:29:28.778Z,3.70
2017-10-11T15:31:56.350Z,3.50
2017-10-11T15:34:24.698Z,2.80
2017-10-11T15:36:52.175Z,15.07
2017-10-11T15:39:19.748Z,3.70
2017-10-11T15:41:48.024Z,2.30
2017-10-11T15:44:16.268Z,2.50
2017-10-11T15:46:43.854Z,2.50
2017-10-11T15:49:11.327Z,2.40
2017-10-11T15:51:39.596Z,2.30
2017-10-11T15:54:07.867Z,16.27
2017-10-11T15:56:36.149Z,9.40
2017-10-11T15:59:03.713Z,2.90
2017-10-11T16:01:32.064Z,3.20
2017-10-11T16:04:01.973Z,2.00
2017-10-11T16:06:29.451Z,2.30
2017-10-11T16:08:57.728Z,2.17
2017-10-11T16:11:25.971Z,2.70
2017-10-11T16:13:53.446Z,2.37
2017-10-11T16:16:21.737Z,2.83
2017-10-11T16:18:49.309Z,2.90
2017-10-11T16:21:17.555Z,3.60
2017-10-11T16:23:45.046Z,3.60
2017-10-11T16:26:13.286Z,8.57
2017-10-11T16:28:42.316Z,13.00
2017-10-11T16:31:10.599Z,11.93
2017-10-11T16:33:38.094Z,10.40
2017-10-11T16:36:05.607Z,11.00
2017-10-11T16:38:33.870Z,11.97
2017-10-11T16:41:03.043Z,13.17
2017-10-11T16:43:30.528Z,13.43
2017-10-11T16:45:58.790Z,11.73
2017-10-11T16:48:27.788Z,11.00
2017-10-11T16:50:55.274Z,11.20
2017-10-11T16:53:23.536Z,8.63
2017-10-11T16:55:51.784Z,9.00
2017-10-11T16:58:19.264Z,7.63
2017-10-11T17:00:46.763Z,7.77
2017-10-11T17:03:14.240Z,6.93
2017-10-11T17:05:41.743Z,7.10
2017-10-11T17:08:10.003Z,7.67
2017-10-11T17:10:38.269Z,7.60
2017-10-11T17:13:05.735Z,8.20
2017-10-11T17:15:33.728Z,9.73
2017-10-11T17:18:01.983Z,60.40
2017-10-11T17:20:29.466Z,23.30
2017-10-11T17:22:58.142Z,10.17
2017-10-11T17:25:26.456Z,9.87
2017-10-11T17:27:53.939Z,12.07
2017-10-11T17:30:21.453Z,10.37
2017-10-11T17:32:49.720Z,10.03
2017-10-11T17:35:17.998Z,11.47
2017-10-11T17:37:46.266Z,12.70
2017-10-11T17:40:14.516Z,12.07
2017-10-11T17:42:42.001Z,12.30
2017-10-11T17:45:10.277Z,12.70
2017-10-11T17:47:38.597Z,12.73
2017-10-11T17:50:06.099Z,13.63
2017-10-11T17:52:33.809Z,13.90
2017-10-11T17:55:01.306Z,13.40
2017-10-11T17:57:28.796Z,15.70
2017-10-11T17:59:57.112Z,15.20
2017-10-11T18:02:24.642Z,13.00
2017-10-11T18:04:52.920Z,12.60
2017-10-11T18:07:21.195Z,12.70
2017-10-11T18:09:49.445Z,36.33
2017-10-11T18:12:16.927Z,13.30
2017-10-11T18:14:45.205Z,19.40
2017-10-11T18:17:13.463Z,16.77
2017-10-11T18:19:40.953Z,16.43
2017-10-11T18:22:08.457Z,14.57
2017-10-11T18:24:36.761Z,14.77
2017-10-11T18:27:05.935Z,13.53
2017-10-11T18:29:33.441Z,18.07
2017-10-11T18:32:00.929Z,20.10
2017-10-11T18:34:28.419Z,16.80
2017-10-11T18:36:55.922Z,15.43
2017-10-11T18:39:24.220Z,14.53
2017-10-11T18:41:51.706Z,16.43
2017-10-11T18:44:19.219Z,15.87
2017-10-11T18:46:46.714Z,33.80
2017-10-11T18:49:14.214Z,23.80
2017-10-11T18:51:42.488Z,19.30
2017-10-11T18:54:10.744Z,18.50
2017-10-11T18:56:38.299Z,16.53
2017-10-11T18:59:05.807Z,16.87
2017-10-11T19:01:33.288Z,17.03
2017-10-11T19:04:00.780Z,16.23
2017-10-11T19:06:29.784Z,15.10
2017-10-11T19:08:58.037Z,16.40
2017-10-11T19:11:25.511Z,16.07
2017-10-11T19:13:53.063Z,21.70
2017-10-11T19:16:20.657Z,21.50
2017-10-11T19:18:48.960Z,17.63
2017-10-11T19:21:16.465Z,16.33
2017-10-11T19:23:43.953Z,14.83
2017-10-11T19:26:12.208Z,15.23
2017-10-11T19:28:39.720Z,16.23
2017-10-11T19:31:07.794Z,16.53
2017-10-11T19:33:35.305Z,15.40
2017-10-11T19:36:03.778Z,16.83
2017-10-11T19:38:31.261Z,15.73
2017-10-11T19:40:58.742Z,16.43
2017-10-11T19:43:26.266Z,16.87
2017-10-11T19:45:54.524Z,16.50
2017-10-11T19:48:22.018Z,16.43
2017-10-11T19:50:49.524Z,15.77
2017-10-11T19:53:17.018Z,16.00
2017-10-11T19:55:45.274Z,16.73
2017-10-11T19:58:12.903Z,15.57
2017-10-11T20:00:40.852Z,15.10
2017-10-11T20:03:08.352Z,15.30
2017-10-11T20:05:35.896Z,18.33
2017-10-11T20:08:03.868Z,16.40
2017-10-11T20:10:31.353Z,17.03
2017-10-11T20:12:58.862Z,17.77
2017-10-11T20:15:26.354Z,30.10
2017-10-11T20:17:53.842Z,19.47
2017-10-11T20:20:22.187Z,17.30
2017-10-11T20:22:49.787Z,17.20
2017-10-11T20:25:18.061Z,15.77
2017-10-11T20:27:46.358Z,15.87
2017-10-11T20:30:13.866Z,15.67
2017-10-11T20:32:42.968Z,15.80
2017-10-11T20:35:11.762Z,14.25
2017-10-11T20:37:39.252Z,14.90
2017-10-11T20:40:06.805Z,16.03
2017-10-11T20:42:35.170Z,15.43
2017-10-11T20:45:03.426Z,15.60
2017-10-11T20:47:31.004Z,15.17
2017-10-11T20:49:59.281Z,15.67
2017-10-11T20:52:27.564Z,15.00
2017-10-11T20:54:55.832Z,15.07
2017-10-11T20:57:24.124Z,15.70
2017-10-11T20:59:52.379Z,14.60
2017-10-11T21:02:19.956Z,15.10
2017-10-11T21:04:48.219Z,14.17
2017-10-11T21:07:15.699Z,13.93
2017-10-11T21:09:43.943Z,15.10
2017-10-11T21:12:12.361Z,16.30
2017-10-11T21:14:39.839Z,15.83
2017-10-11T21:17:07.315Z,15.10
2017-10-11T21:19:34.808Z,14.60
2017-10-11T21:22:02.631Z,14.00
2017-10-11T21:24:30.140Z,14.57
2017-10-11T21:26:58.407Z,15.00
2017-10-11T21:29:25.883Z,14.43
2017-10-11T21:31:54.146Z,15.13
2017-10-11T21:34:22.407Z,14.83
2017-10-11T21:36:49.990Z,14.07
2017-10-11T21:39:18.264Z,14.93
2017-10-11T21:41:46.638Z,13.68
2017-10-11T21:44:14.944Z,14.87
2017-10-11T21:46:42.688Z,14.90
2017-10-11T21:49:11.150Z,15.47
2017-10-11T21:51:39.445Z,15.07
2017-10-11T21:54:07.704Z,14.23
2017-10-11T21:56:36.064Z,16.10
2017-10-11T21:59:03.601Z,14.67
2017-10-11T22:01:31.080Z,13.20
2017-10-11T22:03:58.580Z,15.40
2017-10-11T22:06:26.951Z,14.90
2017-10-11T22:08:55.228Z,14.97
2017-10-11T22:11:23.491Z,14.60
2017-10-11T22:13:52.480Z,14.63
2017-10-11T22:16:20.076Z,14.63
2017-10-11T22:18:47.595Z,13.70
2017-10-11T22:21:16.063Z,14.10
2017-10-11T22:23:43.543Z,14.23
2017-10-11T22:26:11.139Z,14.17
2017-10-11T22:28:38.709Z,16.20
2017-10-11T22:31:06.198Z,15.23
2017-10-11T22:33:33.727Z,17.30
2017-10-11T22:36:01.199Z,16.50
2017-10-11T22:38:28.885Z,16.07
2017-10-11T22:40:56.379Z,16.00
2017-10-11T22:43:24.619Z,14.73
2017-10-11T22:45:52.098Z,14.93
2017-10-11T22:48:19.594Z,14.03
2017-10-11T22:50:47.072Z,15.23
2017-10-11T22:53:14.583Z,15.50
2017-10-11T22:55:42.846Z,13.60
2017-10-11T22:58:11.091Z,13.90
2017-10-11T23:00:38.568Z,13.83
2017-10-11T23:03:06.062Z,13.80
2017-10-11T23:05:34.299Z,13.10
2017-10-11T23:08:01.778Z,14.80
2017-10-11T23:10:30.159Z,16.37
2017-10-11T23:12:58.780Z,15.93
2017-10-11T23:15:26.316Z,14.70
2017-10-11T23:17:54.578Z,17.70
2017-10-11T23:20:22.863Z,15.13
2017-10-11T23:22:51.112Z,14.47
2017-10-11T23:25:18.607Z,16.27
2017-10-11T23:27:46.871Z,13.70
2017-10-11T23:30:15.123Z,14.40
2017-10-11T23:32:42.712Z,14.90
2017-10-11T23:35:10.953Z,14.50
2017-10-11T23:37:38.438Z,12.80
2017-10-11T23:40:06.704Z,10.80
2017-10-11T23:42:34.180Z,14.20
2017-10-11T23:45:02.423Z,10.40
2017-10-11T23:47:29.920Z,11.13
2017-10-11T23:49:58.180Z,12.93
2017-10-11T23:52:25.656Z,12.23
2017-10-11T23:54:53.911Z,12.10
2017-10-11T23:57:21.386Z,11.47
2017-10-11T23:59:50.571Z,11.97
